sensor_id;sensor_type;location;lat;lon;timestamp;pressure;altitude;pressure_sealevel;temperature;humidity
20017;BME280;10169;42.664;23.610;2023-07-28T19:19:24;95107.06;;;21.49;100.00
20017;BME280;10169;42.664;23.610;2023-07-28T19:21:24;95107.19;;;21.44;100.00
20017;BME280;10169;42.664;23.610;2023-07-28T19:23:25;95104.63;;;21.48;100.00
20017;BME280;10169;42.664;23.610;2023-07-28T19:25:26;95102.25;;;21.46;100.00
20017;BME280;10169;42.664;23.610;2023-07-28T19:27:28;95105.72;;;21.38;100.00
20017;BME280;10169;42.664;23.610;2023-07-28T19:29:29;95093.91;;;21.34;100.00
20017;BME280;10169;42.664;23.610;2023-07-28T19:31:29;95110.16;;;21.34;100.00
20017;BME280;10169;42.664;23.610;2023-07-28T19:33:32;95107.31;;;21.09;100.00
20017;BME280;10169;42.664;23.610;2023-07-28T19:35:32;95106.84;;;20.84;100.00
20017;BME280;10169;42.664;23.610;2023-07-28T19:37:32;95109.84;;;20.61;100.00
20017;BME280;10169;42.664;23.610;2023-07-28T19:39:33;95118.97;;;20.51;100.00
20017;BME280;10169;42.664;23.610;2023-07-28T19:41:33;95117.44;;;20.37;100.00
20017;BME280;10169;42.664;23.610;2023-07-28T19:43:34;95127.78;;;20.21;100.00
20017;BME280;10169;42.664;23.610;2023-07-28T19:45:34;95113.09;;;20.00;100.00
20017;BME280;10169;42.664;23.610;2023-07-28T19:47:34;95118.41;;;19.91;100.00
20017;BME280;10169;42.664;23.610;2023-07-28T19:49:37;95118.81;;;19.85;100.00
20017;BME280;10169;42.664;23.610;2023-07-28T19:51:37;95116.22;;;19.80;100.00
20017;BME280;10169;42.664;23.610;2023-07-28T19:53:37;95122.09;;;19.82;100.00
20017;BME280;10169;42.664;23.610;2023-07-28T19:55:38;95121.22;;;19.73;100.00
20017;BME280;10169;42.664;23.610;2023-07-28T19:57:38;95119.31;;;19.60;100.00
20017;BME280;10169;42.664;23.610;2023-07-28T19:59:38;95128.31;;;19.41;100.00
20017;BME280;10169;42.664;23.610;2023-07-28T20:01:38;95120.88;;;19.33;100.00
20017;BME280;10169;42.664;23.610;2023-07-28T20:03:39;95121.47;;;19.30;100.00
20017;BME280;10169;42.664;23.610;2023-07-28T20:05:39;95127.66;;;19.31;100.00
20017;BME280;10169;42.664;23.610;2023-07-28T20:07:39;95128.66;;;19.21;100.00
20017;BME280;10169;42.664;23.610;2023-07-28T20:09:40;95123.88;;;19.18;100.00
20017;BME280;10169;42.664;23.610;2023-07-28T20:11:40;95133.34;;;19.16;100.00
20017;BME280;10169;42.664;23.610;2023-07-28T20:13:41;95128.75;;;19.03;100.00
20017;BME280;10169;42.664;23.610;2023-07-28T20:15:41;95133.19;;;18.94;100.00
20017;BME280;10169;42.664;23.610;2023-07-28T20:17:41;95136.72;;;18.75;100.00
20017;BME280;10169;42.664;23.610;2023-07-28T20:19:41;95139.06;;;18.63;100.00
20017;BME280;10169;42.664;23.610;2023-07-28T20:21:42;95138.06;;;18.59;100.00
20017;BME280;10169;42.664;23.610;2023-07-28T20:23:42;95128.63;;;18.62;100.00
20017;BME280;10169;42.664;23.610;2023-07-28T20:25:43;95130.88;;;18.55;100.00
20017;BME280;10169;42.664;23.610;2023-07-28T20:27:43;95141.81;;;18.45;100.00
20017;BME280;10169;42.664;23.610;2023-07-28T20:29:44;95138.41;;;18.34;100.00
20017;BME280;10169;42.664;23.610;2023-07-28T20:31:44;95135.09;;;18.24;100.00
20017;BME280;10169;42.664;23.610;2023-07-28T20:33:44;95136.97;;;18.23;100.00
20017;BME280;10169;42.664;23.610;2023-07-28T20:35:45;95139.00;;;18.31;100.00
20017;BME280;10169;42.664;23.610;2023-07-28T20:37:45;95136.75;;;18.20;100.00
20017;BME280;10169;42.664;23.610;2023-07-28T20:39:45;95142.94;;;18.20;100.00
20017;BME280;10169;42.664;23.610;2023-07-28T20:41:46;95150.06;;;18.11;100.00
20017;BME280;10169;42.664;23.610;2023-07-28T20:43:47;95144.94;;;18.09;100.00
20017;BME280;10169;42.664;23.610;2023-07-28T20:45:47;95154.59;;;17.92;100.00
20017;BME280;10169;42.664;23.610;2023-07-28T20:47:48;95153.66;;;17.83;100.00
20017;BME280;10169;42.664;23.610;2023-07-28T20:49:48;95163.69;;;17.77;100.00
20017;BME280;10169;42.664;23.610;2023-07-28T20:51:49;95161.66;;;17.64;100.00
20017;BME280;10169;42.664;23.610;2023-07-28T20:53:50;95157.59;;;17.67;100.00
20017;BME280;10169;42.664;23.610;2023-07-28T20:55:50;95154.91;;;17.67;100.00
20017;BME280;10169;42.664;23.610;2023-07-28T20:57:50;95159.72;;;17.70;100.00
20017;BME280;10169;42.664;23.610;2023-07-28T20:59:51;95161.38;;;17.66;100.00
20017;BME280;10169;42.664;23.610;2023-07-28T21:01:51;95157.13;;;17.60;100.00
20017;BME280;10169;42.664;23.610;2023-07-28T21:03:51;95163.41;;;17.50;100.00
20017;BME280;10169;42.664;23.610;2023-07-28T21:05:52;95164.84;;;17.42;100.00
20017;BME280;10169;42.664;23.610;2023-07-28T21:07:52;95159.50;;;17.37;100.00
20017;BME280;10169;42.664;23.610;2023-07-28T21:09:53;95166.66;;;17.23;100.00
20017;BME280;10169;42.664;23.610;2023-07-28T21:11:54;95166.19;;;17.16;100.00
20017;BME280;10169;42.664;23.610;2023-07-28T21:13:54;95165.09;;;17.17;100.00
20017;BME280;10169;42.664;23.610;2023-07-28T21:15:55;95160.38;;;17.04;100.00
20017;BME280;10169;42.664;23.610;2023-07-28T21:17:55;95161.84;;;16.92;100.00
20017;BME280;10169;42.664;23.610;2023-07-28T21:19:55;95158.69;;;16.85;100.00
20017;BME280;10169;42.664;23.610;2023-07-28T21:21:56;95165.94;;;16.84;100.00
20017;BME280;10169;42.664;23.610;2023-07-28T21:23:56;95163.28;;;16.79;100.00
20017;BME280;10169;42.664;23.610;2023-07-28T21:25:57;95168.56;;;16.60;100.00
20017;BME280;10169;42.664;23.610;2023-07-28T21:27:58;95169.94;;;16.48;100.00
20017;BME280;10169;42.664;23.610;2023-07-28T21:29:58;95168.06;;;16.53;100.00
20017;BME280;10169;42.664;23.610;2023-07-28T21:31:58;95164.03;;;16.56;100.00
20017;BME280;10169;42.664;23.610;2023-07-28T21:33:59;95168.34;;;16.52;100.00
20017;BME280;10169;42.664;23.610;2023-07-28T21:35:59;95168.34;;;16.52;100.00
20017;BME280;10169;42.664;23.610;2023-07-28T21:37:59;95169.41;;;16.51;100.00
20017;BME280;10169;42.664;23.610;2023-07-28T21:40:00;95171.59;;;16.44;100.00
20017;BME280;10169;42.664;23.610;2023-07-28T21:42:06;95164.84;;;16.56;100.00
20017;BME280;10169;42.664;23.610;2023-07-28T21:44:06;95177.13;;;16.62;100.00
20017;BME280;10169;42.664;23.610;2023-07-28T21:46:07;95174.16;;;16.64;100.00
20017;BME280;10169;42.664;23.610;2023-07-28T21:48:07;95165.91;;;16.55;100.00
20017;BME280;10169;42.664;23.610;2023-07-28T21:50:07;95165.38;;;16.53;100.00
20017;BME280;10169;42.664;23.610;2023-07-28T21:52:08;95166.97;;;16.54;100.00
20017;BME280;10169;42.664;23.610;2023-07-28T21:54:08;95169.38;;;16.56;100.00
20017;BME280;10169;42.664;23.610;2023-07-28T21:56:08;95158.09;;;16.59;100.00
20017;BME280;10169;42.664;23.610;2023-07-28T21:58:09;95166.47;;;16.47;100.00
20017;BME280;10169;42.664;23.610;2023-07-28T22:00:09;95172.38;;;16.44;100.00
20017;BME280;10169;42.664;23.610;2023-07-28T22:02:11;95168.94;;;16.39;100.00
20017;BME280;10169;42.664;23.610;2023-07-28T22:04:12;95178.06;;;16.38;100.00
20017;BME280;10169;42.664;23.610;2023-07-28T22:06:12;95179.44;;;16.30;100.00
20017;BME280;10169;42.664;23.610;2023-07-28T22:08:12;95183.47;;;16.28;100.00
20017;BME280;10169;42.664;23.610;2023-07-28T22:10:13;95181.94;;;16.17;100.00
20017;BME280;10169;42.664;23.610;2023-07-28T22:12:13;95185.44;;;16.12;100.00
20017;BME280;10169;42.664;23.610;2023-07-28T22:14:13;95184.09;;;16.15;100.00
20017;BME280;10169;42.664;23.610;2023-07-28T22:16:14;95189.16;;;16.21;100.00
20017;BME280;10169;42.664;23.610;2023-07-28T22:18:14;95182.44;;;16.24;100.00
20017;BME280;10169;42.664;23.610;2023-07-28T22:20:15;95182.97;;;16.26;100.00
20017;BME280;10169;42.664;23.610;2023-07-28T22:22:16;95193.44;;;16.27;100.00
20017;BME280;10169;42.664;23.610;2023-07-28T22:24:16;95190.78;;;16.22;100.00
20017;BME280;10169;42.664;23.610;2023-07-28T22:26:16;95183.59;;;16.08;100.00
20017;BME280;10169;42.664;23.610;2023-07-28T22:28:17;95190.34;;;16.00;100.00
20017;BME280;10169;42.664;23.610;2023-07-28T22:30:17;95189.28;;;15.96;100.00
20017;BME280;10169;42.664;23.610;2023-07-28T22:32:18;95182.91;;;15.87;100.00
20017;BME280;10169;42.664;23.610;2023-07-28T22:34:18;95185.03;;;15.85;100.00
20017;BME280;10169;42.664;23.610;2023-07-28T22:36:18;95192.56;;;15.83;100.00
20017;BME280;10169;42.664;23.610;2023-07-28T22:38:19;95192.25;;;15.89;100.00
20017;BME280;10169;42.664;23.610;2023-07-28T22:40:19;95190.09;;;15.96;100.00
20017;BME280;10169;42.664;23.610;2023-07-28T22:42:19;95183.41;;;15.94;100.00
20017;BME280;10169;42.664;23.610;2023-07-28T22:44:19;95184.25;;;15.84;100.00
20017;BME280;10169;42.664;23.610;2023-07-28T22:46:20;95191.22;;;15.80;100.00
20017;BME280;10169;42.664;23.610;2023-07-28T22:48:20;95185.34;;;15.78;100.00
20017;BME280;10169;42.664;23.610;2023-07-28T22:50:20;95179.47;;;15.71;100.00
20017;BME280;10169;42.664;23.610;2023-07-28T22:52:21;95189.94;;;15.68;100.00
20017;BME280;10169;42.664;23.610;2023-07-28T22:54:21;95183.78;;;15.72;100.00
20017;BME280;10169;42.664;23.610;2023-07-28T22:56:22;95190.47;;;15.70;100.00
20017;BME280;10169;42.664;23.610;2023-07-28T22:58:22;95188.31;;;15.72;100.00
20017;BME280;10169;42.664;23.610;2023-07-28T23:00:22;95185.91;;;15.75;100.00
20017;BME280;10169;42.664;23.610;2023-07-28T23:02:23;95178.16;;;15.69;100.00
20017;BME280;10169;42.664;23.610;2023-07-28T23:04:23;95170.19;;;15.49;100.00
20017;BME280;10169;42.664;23.610;2023-07-28T23:06:23;95173.66;;;15.49;100.00
20017;BME280;10169;42.664;23.610;2023-07-28T23:08:23;95171.00;;;15.29;100.00
20017;BME280;10169;42.664;23.610;2023-07-28T23:10:24;95175.59;;;15.13;100.00
20017;BME280;10169;42.664;23.610;2023-07-28T23:12:24;95173.75;;;15.04;100.00
20017;BME280;10169;42.664;23.610;2023-07-28T23:14:24;95181.50;;;15.05;100.00
20017;BME280;10169;42.664;23.610;2023-07-28T23:16:25;95185.00;;;14.96;100.00
20017;BME280;10169;42.664;23.610;2023-07-28T23:18:25;95181.00;;;14.83;100.00
20017;BME280;10169;42.664;23.610;2023-07-28T23:20:25;95177.25;;;14.74;100.00
20017;BME280;10169;42.664;23.610;2023-07-28T23:22:25;95181.53;;;14.70;100.00
20017;BME280;10169;42.664;23.610;2023-07-28T23:24:26;95181.25;;;14.72;100.00
20017;BME280;10169;42.664;23.610;2023-07-28T23:26:26;95180.47;;;14.76;100.00
20017;BME280;10169;42.664;23.610;2023-07-28T23:28:27;95174.31;;;14.81;100.00
20017;BME280;10169;42.664;23.610;2023-07-28T23:30:27;95163.88;;;14.74;100.00
20017;BME280;10169;42.664;23.610;2023-07-28T23:32:28;95168.16;;;14.70;100.00
20017;BME280;10169;42.664;23.610;2023-07-28T23:34:28;95170.03;;;14.75;100.00
20017;BME280;10169;42.664;23.610;2023-07-28T23:36:28;95168.69;;;14.72;100.00
20017;BME280;10169;42.664;23.610;2023-07-28T23:38:29;95168.16;;;14.60;100.00
20017;BME280;10169;42.664;23.610;2023-07-28T23:40:29;95167.63;;;14.63;100.00
20017;BME280;10169;42.664;23.610;2023-07-28T23:42:29;95167.88;;;14.67;100.00
20017;BME280;10169;42.664;23.610;2023-07-28T23:44:29;95170.03;;;14.70;100.00
20017;BME280;10169;42.664;23.610;2023-07-28T23:46:30;95167.09;;;14.61;100.00
20017;BME280;10169;42.664;23.610;2023-07-28T23:48:30;95168.41;;;14.53;100.00
20017;BME280;10169;42.664;23.610;2023-07-28T23:50:30;95157.47;;;14.50;100.00
20017;BME280;10169;42.664;23.610;2023-07-28T23:52:31;95160.66;;;14.42;100.00
20017;BME280;10169;42.664;23.610;2023-07-28T23:54:31;95165.19;;;14.41;100.00
20017;BME280;10169;42.664;23.610;2023-07-28T23:56:31;95160.66;;;14.52;100.00
20017;BME280;10169;42.664;23.610;2023-07-28T23:58:31;95163.88;;;14.54;100.00
